Time;durP1;ratioP1;P1;durP2;ratioP2;P2;SDS_P1;SDS_P2;PMS_P1;PMS_P2;Temp;Humidity;BMP_temperature;BMP_pressure;BME280_temperature;BME280_humidity;BME280_pressure;Samples;Min_cycle;Max_cycle;Signal;HPM_P1;HPM_P2
2024/04/14 00:01:05;;;;;;;4.97;2.33;;;22.80;92.80;;;;;;10744220;26;20011;-69
2024/04/14 00:05:55;;;;;;;5.55;1.98;;;22.80;93.00;;;;;;10744907;26;20019;-71
2024/04/14 00:10:46;;;;;;;2.50;2.03;;;22.70;92.80;;;;;;10746557;26;20334;-71
2024/04/14 00:15:37;;;;;;;3.25;2.28;;;22.70;92.70;;;;;;10716250;26;20004;-78
2024/04/14 00:20:28;;;;;;;3.83;2.35;;;22.60;92.70;;;;;;10746935;26;20007;-71
2024/04/14 00:25:18;;;;;;;3.30;1.67;;;22.60;92.70;;;;;;10747890;26;20011;-70
2024/04/14 00:30:11;;;;;;;2.78;1.95;;;22.50;92.70;;;;;;10729422;26;20017;-70
2024/04/14 00:35:02;;;;;;;2.45;2.00;;;22.50;92.70;;;;;;10709411;26;20008;-69
2024/04/14 00:39:53;;;;;;;4.28;2.42;;;22.50;92.70;;;;;;10742306;26;20004;-69
2024/04/14 00:44:44;;;;;;;2.72;2.15;;;22.40;92.80;;;;;;10712702;26;19992;-69
2024/04/14 00:49:37;;;;;;;4.13;1.85;;;22.40;92.80;;;;;;10747338;26;20011;-69
2024/04/14 00:54:32;;;;;;;3.90;2.42;;;22.30;92.90;;;;;;10716883;26;20011;-69
2024/04/14 00:59:22;;;;;;;3.58;1.90;;;22.30;92.90;;;;;;10745606;26;19996;-70
2024/04/14 01:04:13;;;;;;;3.17;1.90;;;22.30;92.90;;;;;;10731111;26;20028;-70
2024/04/14 01:09:04;;;;;;;4.82;2.40;;;22.20;92.90;;;;;;10756503;26;20015;-71
2024/04/14 01:13:55;;;;;;;6.82;2.17;;;22.20;93.00;;;;;;10748178;26;20778;-68
2024/04/14 01:18:45;;;;;;;3.20;1.83;;;22.10;93.00;;;;;;10745884;26;19997;-69
2024/04/14 01:23:37;;;;;;;5.90;2.58;;;22.20;93.00;;;;;;10749423;26;20008;-75
2024/04/14 01:28:28;;;;;;;3.40;2.13;;;22.10;93.10;;;;;;10748660;26;20078;-70
2024/04/14 01:33:19;;;;;;;2.75;1.80;;;22.00;93.10;;;;;;10742106;26;20086;-70
2024/04/14 01:38:09;;;;;;;2.70;1.75;;;21.90;93.10;;;;;;10721935;26;20030;-71
2024/04/14 01:43:00;;;;;;;4.68;2.15;;;21.80;93.10;;;;;;10750860;26;19996;-70
2024/04/14 01:47:51;;;;;;;2.72;2.17;;;22.00;93.20;;;;;;10734633;26;20414;-70
2024/04/14 01:52:42;;;;;;;4.35;2.15;;;21.90;93.30;;;;;;10752779;26;19996;-70
2024/04/14 01:57:33;;;;;;;4.38;2.03;;;21.90;93.30;;;;;;10752584;26;20077;-70
2024/04/14 02:02:24;;;;;;;2.35;1.67;;;21.80;93.30;;;;;;10752657;26;20007;-71
2024/04/14 02:07:15;;;;;;;4.68;2.28;;;21.80;93.30;;;;;;10752018;26;20003;-70
2024/04/14 02:12:06;;;;;;;3.08;1.70;;;21.70;93.30;;;;;;10716529;26;19997;-69
2024/04/14 02:16:57;;;;;;;2.88;2.13;;;21.70;93.30;;;;;;10731316;26;19997;-69
2024/04/14 02:21:48;;;;;;;2.55;1.73;;;21.70;93.40;;;;;;10747374;26;19993;-73
2024/04/14 02:26:38;;;;;;;3.42;1.80;;;21.50;93.50;;;;;;10695682;26;20032;-70
2024/04/14 02:31:29;;;;;;;3.20;1.70;;;21.50;93.50;;;;;;10730801;26;20000;-71
2024/04/14 02:36:20;;;;;;;3.10;1.80;;;21.40;93.50;;;;;;10704694;26;20508;-70
2024/04/14 02:41:11;;;;;;;2.92;1.88;;;21.30;93.60;;;;;;10714477;26;20082;-69
2024/04/14 02:46:02;;;;;;;3.50;2.17;;;21.30;93.60;;;;;;10750573;26;20001;-69
2024/04/14 02:50:53;;;;;;;3.15;2.35;;;21.10;93.70;;;;;;10720139;26;20000;-69
2024/04/14 02:55:44;;;;;;;3.05;1.48;;;21.10;93.70;;;;;;10750813;26;20004;-69
2024/04/14 03:00:35;;;;;;;4.05;2.10;;;21.00;93.80;;;;;;10750458;26;20000;-69
2024/04/14 03:05:26;;;;;;;2.58;1.88;;;21.00;93.80;;;;;;10747018;26;20006;-69
2024/04/14 03:10:18;;;;;;;3.47;2.10;;;21.00;93.90;;;;;;10749861;26;20004;-69
2024/04/14 03:15:09;;;;;;;2.70;1.65;;;20.90;94.00;;;;;;10718903;26;20004;-69
2024/04/14 03:20:00;;;;;;;3.08;1.90;;;20.90;94.00;;;;;;10740960;26;20001;-70
2024/04/14 03:24:51;;;;;;;3.83;2.00;;;20.90;94.10;;;;;;10736578;26;20004;-69
2024/04/14 03:29:47;;;;;;;2.00;1.80;;;20.90;94.10;;;;;;10720148;26;20007;-68
2024/04/14 03:34:38;;;;;;;2.22;1.52;;;20.80;94.20;;;;;;10750196;26;19997;-70
2024/04/14 03:39:30;;;;;;;2.42;1.63;;;20.70;94.20;;;;;;10718569;26;20000;-69
2024/04/14 03:44:21;;;;;;;5.78;1.95;;;20.70;94.40;;;;;;10748266;26;20416;-70
2024/04/14 03:49:11;;;;;;;2.58;1.75;;;20.70;94.40;;;;;;10740339;26;20028;-69
2024/04/14 03:54:02;;;;;;;3.40;1.98;;;20.60;94.30;;;;;;10749863;26;20004;-69
2024/04/14 03:58:53;;;;;;;2.17;1.67;;;20.50;94.30;;;;;;10748956;26;20096;-70
2024/04/14 04:03:43;;;;;;;3.15;1.98;;;20.50;94.50;;;;;;10749428;26;20004;-70
2024/04/14 04:08:35;;;;;;;2.95;2.00;;;20.40;94.50;;;;;;10717979;26;20412;-69
2024/04/14 04:13:26;;;;;;;3.35;2.05;;;20.30;94.60;;;;;;10718105;26;20007;-69
2024/04/14 04:18:21;;;;;;;3.85;2.30;;;20.30;94.60;;;;;;10748089;26;20131;-70
2024/04/14 04:23:12;;;;;;;3.30;2.15;;;20.20;94.70;;;;;;10718217;26;19997;-69
2024/04/14 04:28:03;;;;;;;3.90;1.95;;;20.20;94.80;;;;;;10746474;26;20646;-69
2024/04/14 04:32:55;;;;;;;2.55;1.75;;;20.20;94.90;;;;;;10717380;26;20019;-69
2024/04/14 04:37:46;;;;;;;3.15;2.53;;;20.20;94.90;;;;;;10737828;26;20539;-69
2024/04/14 04:42:37;;;;;;;2.92;2.03;;;20.10;94.90;;;;;;10717669;26;19996;-69
2024/04/14 04:47:27;;;;;;;5.40;1.83;;;20.20;95.00;;;;;;10740418;26;20001;-69
2024/04/14 04:52:18;;;;;;;4.95;2.40;;;20.10;95.00;;;;;;10747572;26;20031;-69
2024/04/14 04:57:09;;;;;;;2.13;1.92;;;20.00;95.00;;;;;;10745638;26;20027;-68
2024/04/14 05:02:00;;;;;;;3.47;2.03;;;20.00;95.10;;;;;;10724448;26;20302;-69
2024/04/14 05:06:51;;;;;;;4.25;1.90;;;19.90;95.20;;;;;;10746449;26;20028;-73
2024/04/14 05:11:42;;;;;;;3.03;2.20;;;19.90;95.30;;;;;;10731363;26;20000;-74
2024/04/14 05:16:33;;;;;;;4.82;2.13;;;19.90;95.30;;;;;;10728592;26;20501;-69
2024/04/14 05:21:24;;;;;;;4.72;1.85;;;19.80;95.40;;;;;;10743465;26;20000;-69
2024/04/14 05:26:14;;;;;;;3.67;2.20;;;19.80;95.50;;;;;;10733451;26;20007;-72
2024/04/14 05:31:05;;;;;;;4.28;3.00;;;19.80;95.60;;;;;;10725958;26;20048;-67
2024/04/14 05:35:57;;;;;;;3.10;2.33;;;19.80;95.70;;;;;;10769901;26;20008;-64
2024/04/14 05:40:47;;;;;;;2.65;2.00;;;19.80;95.80;;;;;;10780271;26;20024;-65
2024/04/14 05:45:38;;;;;;;4.70;2.08;;;19.70;95.80;;;;;;10760981;26;20012;-67
2024/04/14 05:50:28;;;;;;;3.70;2.40;;;19.60;95.90;;;;;;10731042;26;20078;-69
2024/04/14 05:55:19;;;;;;;2.72;1.63;;;19.60;95.90;;;;;;10773722;26;20004;-66
2024/04/14 06:00:10;;;;;;;2.95;2.15;;;19.60;96.00;;;;;;10772323;26;20689;-68
2024/04/14 06:05:01;;;;;;;3.15;2.10;;;19.50;96.10;;;;;;10717356;26;20028;-70
2024/04/14 06:09:51;;;;;;;3.92;2.13;;;19.50;96.10;;;;;;10732652;26;20008;-68
2024/04/14 06:14:42;;;;;;;2.40;1.75;;;19.50;96.20;;;;;;10753205;26;20627;-68
2024/04/14 06:19:32;;;;;;;4.55;2.03;;;19.50;96.20;;;;;;10752104;26;20004;-66
2024/04/14 06:24:23;;;;;;;4.75;2.33;;;19.60;96.20;;;;;;10753043;26;20015;-66
2024/04/14 06:29:14;;;;;;;2.90;2.03;;;19.60;96.20;;;;;;10751830;26;20004;-66
2024/04/14 06:34:07;;;;;;;4.28;2.00;;;19.60;96.10;;;;;;10752162;26;20089;-66
2024/04/14 06:38:58;;;;;;;2.58;2.15;;;19.60;96.30;;;;;;10751957;26;20027;-66
2024/04/14 06:43:48;;;;;;;3.67;2.05;;;19.60;96.30;;;;;;10751684;26;20031;-66
2024/04/14 06:48:39;;;;;;;3.83;1.98;;;19.70;96.60;;;;;;10751618;26;20000;-66
2024/04/14 06:53:29;;;;;;;4.97;2.47;;;19.70;96.30;;;;;;10721358;26;20047;-66
2024/04/14 06:58:20;;;;;;;4.13;2.58;;;19.70;96.30;;;;;;10751950;26;20008;-67
2024/04/14 07:03:12;;;;;;;3.50;2.80;;;19.90;96.40;;;;;;10750667;26;20004;-67
2024/04/14 07:08:02;;;;;;;2.50;2.17;;;19.90;96.40;;;;;;10749379;26;20359;-66
2024/04/14 07:12:53;;;;;;;3.28;2.47;;;20.00;96.50;;;;;;10749582;26;20039;-71
2024/04/14 07:17:44;;;;;;;5.20;2.65;;;20.10;96.50;;;;;;10750271;26;20028;-71
2024/04/14 07:22:34;;;;;;;3.40;1.95;;;20.10;96.50;;;;;;10749075;26;20000;-66
2024/04/14 07:27:26;;;;;;;2.88;2.17;;;20.20;96.60;;;;;;10749832;26;19996;-66
2024/04/14 07:32:16;;;;;;;2.75;2.30;;;20.30;96.60;;;;;;10720273;26;20000;-67
2024/04/14 07:37:07;;;;;;;2.65;2.17;;;20.40;96.60;;;;;;10750295;26;20040;-65
2024/04/14 07:42:00;;;;;;;3.33;2.50;;;20.40;96.50;;;;;;10719650;26;19996;-66
2024/04/14 07:46:51;;;;;;;3.92;2.72;;;20.60;96.60;;;;;;10731438;26;20009;-70
2024/04/14 07:51:41;;;;;;;4.13;2.10;;;20.70;96.60;;;;;;10722179;26;20007;-72
2024/04/14 07:56:32;;;;;;;2.63;2.13;;;20.80;96.60;;;;;;10750025;26;20000;-68
2024/04/14 08:01:23;;;;;;;2.88;2.53;;;20.80;96.70;;;;;;10749837;26;19996;-66
2024/04/14 08:06:13;;;;;;;2.50;1.90;;;20.80;96.70;;;;;;10749175;26;20098;-72
2024/04/14 08:11:07;;;;;;;2.67;2.15;;;20.90;96.80;;;;;;10758515;26;20055;-69
2024/04/14 08:15:57;;;;;;;2.13;1.80;;;21.00;96.80;;;;;;10750730;26;20506;-67
2024/04/14 08:20:58;;;;;;;4.75;1.90;;;21.00;96.80;;;;;;10783689;26;20046;-65
2024/04/14 08:25:49;;;;;;;2.30;1.75;;;21.10;96.80;;;;;;10766407;26;19996;-66
2024/04/14 08:30:40;;;;;;;2.38;1.65;;;21.10;96.80;;;;;;10767431;26;20115;-65
2024/04/14 08:35:31;;;;;;;3.90;1.88;;;21.20;96.90;;;;;;10782680;26;20000;-66
2024/04/14 08:40:21;;;;;;;3.10;1.95;;;21.30;97.00;;;;;;10772034;26;20066;-70
2024/04/14 08:45:16;;;;;;;3.63;2.17;;;21.30;97.00;;;;;;10782854;26;20090;-66
2024/04/14 08:50:08;;;;;;;2.13;1.83;;;21.30;97.00;;;;;;10747686;26;20065;-74
2024/04/14 08:54:59;;;;;;;2.65;2.20;;;21.40;97.10;;;;;;10780642;26;20015;-67
2024/04/14 08:59:50;;;;;;;3.80;2.33;;;21.40;97.10;;;;;;10782792;26;20019;-66
2024/04/14 09:04:42;;;;;;;3.13;1.70;;;21.50;97.20;;;;;;10775541;26;20068;-67
2024/04/14 09:09:32;;;;;;;16.40;2.72;;;21.50;97.20;;;;;;10780477;26;20581;-66
2024/04/14 09:14:23;;;;;;;2.47;1.80;;;21.50;97.20;;;;;;10778198;26;19996;-66
2024/04/14 09:19:14;;;;;;;2.83;2.05;;;21.50;97.30;;;;;;10780207;26;20014;-67
2024/04/14 09:24:05;;;;;;;2.97;1.80;;;21.50;97.30;;;;;;10780309;26;20789;-66
2024/04/14 09:29:06;;;;;;;3.55;1.80;;;21.60;97.40;;;;;;10770927;26;20726;-68
2024/04/14 09:33:57;;;;;;;4.15;2.20;;;21.60;97.50;;;;;;10769631;26;20465;-67
2024/04/14 09:38:48;;;;;;;4.07;2.05;;;21.70;97.50;;;;;;10778408;26;20008;-68
2024/04/14 09:43:39;;;;;;;3.15;1.63;;;21.70;97.50;;;;;;10782716;26;20015;-66
2024/04/14 09:48:31;;;;;;;2.10;1.50;;;21.80;97.60;;;;;;10710453;26;20516;-69
2024/04/14 09:53:24;;;;;;;3.67;1.63;;;21.80;97.50;;;;;;10710771;26;20001;-66
2024/04/14 09:58:15;;;;;;;3.78;1.83;;;21.90;97.50;;;;;;10703126;26;20523;-67
2024/04/14 10:03:09;;;;;;;3.20;2.20;;;21.90;97.60;;;;;;10705568;26;20012;-66
2024/04/14 10:08:00;;;;;;;5.55;2.10;;;22.00;97.60;;;;;;10710242;26;20036;-70
2024/04/14 10:12:52;;;;;;;4.22;1.63;;;22.00;97.60;;;;;;10712333;26;20007;-69
2024/04/14 10:17:42;;;;;;;2.90;1.95;;;22.00;97.60;;;;;;10701374;26;19997;-67
2024/04/14 10:22:38;;;;;;;2.80;1.75;;;22.10;97.60;;;;;;10694507;26;20520;-69
2024/04/14 10:27:34;;;;;;;2.33;1.60;;;22.10;97.60;;;;;;10720203;26;20038;-74
2024/04/14 10:32:25;;;;;;;3.40;1.70;;;22.10;97.70;;;;;;10693522;26;20005;-75
2024/04/14 10:37:26;;;;;;;4.70;1.80;;;22.20;97.70;;;;;;10685065;26;19997;-73
2024/04/14 10:42:17;;;;;;;3.28;1.83;;;22.30;97.70;;;;;;10678281;26;20005;-70
2024/04/14 10:47:08;;;;;;;4.40;1.70;;;22.30;97.60;;;;;;10673645;26;20009;-71
2024/04/14 10:51:59;;;;;;;1.75;1.50;;;22.40;97.60;;;;;;10700326;26;20419;-67
2024/04/14 10:56:53;;;;;;;3.60;1.88;;;22.50;97.60;;;;;;10706553;26;20075;-67
2024/04/14 11:01:44;;;;;;;5.50;2.70;;;22.60;97.60;;;;;;10680623;26;20008;-68
2024/04/14 11:06:34;;;;;;;2.97;1.52;;;22.60;97.60;;;;;;10662141;26;20331;-75
2024/04/14 11:11:25;;;;;;;3.30;2.30;;;22.70;97.60;;;;;;10680472;26;19997;-73
2024/04/14 11:16:16;;;;;;;3.83;1.70;;;22.80;97.60;;;;;;10683245;26;20081;-68
2024/04/14 11:21:07;;;;;;;3.55;2.53;;;22.80;97.50;;;;;;10707739;26;20015;-71
2024/04/14 11:25:58;;;;;;;5.55;2.60;;;22.80;97.60;;;;;;10691880;26;20032;-69
2024/04/14 11:30:51;;;;;;;2.63;1.92;;;22.80;97.60;;;;;;10708035;26;20075;-72
2024/04/14 11:35:42;;;;;;;8.73;4.82;;;22.80;97.60;;;;;;10702087;26;19996;-75
2024/04/14 11:40:33;;;;;;;7.57;3.45;;;22.90;97.60;;;;;;10713936;26;20000;-75
2024/04/14 11:45:23;;;;;;;6.20;2.63;;;23.00;97.60;;;;;;10724000;26;20010;-75
2024/04/14 11:50:14;;;;;;;4.72;2.47;;;23.10;97.60;;;;;;10749264;26;20003;-70
2024/04/14 11:55:09;;;;;;;2.92;2.00;;;23.10;97.60;;;;;;10784594;26;20032;-72
2024/04/14 11:59:59;;;;;;;4.22;2.10;;;23.10;97.60;;;;;;10757118;26;19996;-66
2024/04/14 12:04:51;;;;;;;4.35;2.72;;;23.10;97.90;;;;;;10749062;26;19997;-73
2024/04/14 12:09:43;;;;;;;5.55;3.72;;;23.30;97.50;;;;;;10693124;26;20004;-76
2024/04/14 12:14:34;;;;;;;5.40;2.50;;;23.40;97.60;;;;;;10739867;26;20327;-66
2024/04/14 12:19:24;;;;;;;3.67;1.85;;;23.50;97.50;;;;;;10734739;26;20000;-66
2024/04/14 12:24:17;;;;;;;2.58;1.88;;;23.60;97.50;;;;;;10740726;26;19996;-66
2024/04/14 12:29:08;;;;;;;3.85;2.47;;;23.80;97.40;;;;;;10742253;26;20658;-66
2024/04/14 12:33:58;;;;;;;4.07;2.40;;;23.90;97.40;;;;;;10740547;26;20021;-76
2024/04/14 12:38:49;;;;;;;5.57;1.98;;;24.00;97.70;;;;;;10734374;26;19996;-72
2024/04/14 12:43:40;;;;;;;4.25;2.40;;;24.10;97.40;;;;;;10742623;26;19997;-68
2024/04/14 12:48:30;;;;;;;2.55;2.08;;;24.20;97.40;;;;;;10746565;26;20012;-70
2024/04/14 12:53:21;;;;;;;2.75;1.98;;;24.40;97.40;;;;;;10746584;26;20011;-67
2024/04/14 12:58:15;;;;;;;2.53;1.83;;;24.40;97.30;;;;;;10750150;26;19996;-66
2024/04/14 13:03:07;;;;;;;3.27;2.00;;;24.30;97.40;;;;;;10753590;26;20165;-66
2024/04/14 13:07:58;;;;;;;2.60;1.98;;;24.40;97.50;;;;;;10761892;26;20012;-69
2024/04/14 13:12:52;;;;;;;2.72;1.63;;;24.50;97.40;;;;;;10697875;26;20122;-69
2024/04/14 13:17:43;;;;;;;3.20;1.67;;;24.60;97.40;;;;;;10748023;26;20372;-67
2024/04/14 13:22:34;;;;;;;2.20;1.60;;;24.80;97.40;;;;;;10720456;26;20011;-68
2024/04/14 13:27:25;;;;;;;3.70;2.08;;;25.00;97.30;;;;;;10742946;26;20001;-70
2024/04/14 13:32:17;;;;;;;4.43;2.00;;;25.20;97.20;;;;;;10742306;26;20008;-70
2024/04/14 13:37:08;;;;;;;6.35;2.33;;;25.20;97.20;;;;;;10754282;26;20038;-69
2024/04/14 13:41:58;;;;;;;3.95;2.00;;;25.40;97.10;;;;;;10748782;26;20014;-70
2024/04/14 13:46:49;;;;;;;3.13;1.67;;;25.70;97.00;;;;;;10750770;26;20331;-75
2024/04/14 13:51:40;;;;;;;2.92;1.48;;;26.00;96.80;;;;;;10753463;26;20000;-66
2024/04/14 13:56:30;;;;;;;2.65;1.63;;;26.30;96.70;;;;;;10763996;26;20479;-69
2024/04/14 14:01:21;;;;;;;1.83;1.40;;;26.30;96.50;;;;;;10753840;26;20000;-66
2024/04/14 14:06:12;;;;;;;2.97;1.30;;;26.40;96.40;;;;;;10753853;26;20416;-66
2024/04/14 14:11:03;;;;;;;1.52;1.20;;;26.50;96.40;;;;;;10752427;26;20742;-66
2024/04/14 14:15:53;;;;;;;3.20;1.25;;;26.50;96.20;;;;;;10761768;26;20004;-69
2024/04/14 14:20:44;;;;;;;2.60;1.70;;;26.70;96.10;;;;;;10764691;26;20004;-69
2024/04/14 14:25:36;;;;;;;1.95;1.48;;;26.80;96.00;;;;;;10758125;26;20043;-71
2024/04/14 14:30:26;;;;;;;1.00;0.90;;;26.80;95.90;;;;;;10751857;26;20425;-71
2024/04/14 14:40:26;;;;;;;2.67;1.75;;;27.00;95.80;;;;;;10752303;26;20014;-68
2024/04/14 14:45:17;;;;;;;2.00;1.30;;;27.20;95.60;;;;;;10753519;26;20010;-67
2024/04/14 14:50:08;;;;;;;2.47;1.20;;;27.40;95.60;;;;;;10745723;26;19996;-72
2024/04/14 14:54:58;;;;;;;1.90;1.38;;;27.40;95.50;;;;;;10727620;26;20007;-72
2024/04/14 14:59:49;;;;;;;2.38;1.20;;;27.40;95.40;;;;;;10721897;26;19996;-72
2024/04/14 15:04:39;;;;;;;3.05;1.23;;;27.50;95.40;;;;;;10704660;26;20000;-68
2024/04/14 15:09:30;;;;;;;1.80;1.20;;;27.40;95.20;;;;;;10746546;26;20077;-67
2024/04/14 15:14:21;;;;;;;2.35;1.30;;;27.50;95.10;;;;;;10750586;26;20076;-67
2024/04/14 15:19:11;;;;;;;2.58;1.40;;;27.70;94.90;;;;;;10750836;26;20011;-68
2024/04/14 15:24:02;;;;;;;1.95;1.13;;;27.90;94.80;;;;;;10743416;26;20015;-66
2024/04/14 15:28:53;;;;;;;2.13;1.08;;;28.00;94.60;;;;;;10742690;26;20008;-66
2024/04/14 15:33:44;;;;;;;3.65;1.10;;;28.00;94.50;;;;;;10749462;26;20016;-67
2024/04/14 15:38:34;;;;;;;5.38;1.50;;;27.80;94.50;;;;;;10741495;26;20594;-66
2024/04/14 15:43:25;;;;;;;3.35;1.42;;;27.70;94.50;;;;;;10742334;26;20536;-67
2024/04/14 15:48:16;;;;;;;1.92;1.27;;;27.70;94.70;;;;;;10728359;26;19997;-69
2024/04/14 15:53:06;;;;;;;4.25;1.58;;;27.70;94.30;;;;;;10744993;26;20000;-66
2024/04/14 15:57:57;;;;;;;3.22;1.42;;;27.60;94.20;;;;;;10748359;26;20004;-66
2024/04/14 16:02:52;;;;;;;3.63;1.20;;;27.70;94.20;;;;;;10748358;26;20019;-69
2024/04/14 16:07:49;;;;;;;2.30;1.50;;;27.70;94.00;;;;;;10717774;26;20062;-71
2024/04/14 16:12:39;;;;;;;4.00;1.40;;;28.10;93.70;;;;;;10716774;26;20007;-65
2024/04/14 16:17:30;;;;;;;1.40;1.10;;;28.50;93.50;;;;;;10747782;26;20032;-66
2024/04/14 16:22:20;;;;;;;3.08;1.70;;;28.60;93.40;;;;;;10748072;26;20028;-65
2024/04/14 16:27:14;;;;;;;3.58;1.42;;;28.50;93.50;;;;;;10747921;26;20008;-66
2024/04/14 16:32:05;;;;;;;4.23;1.60;;;28.60;93.30;;;;;;10747796;26;20078;-66
2024/04/14 16:36:56;;;;;;;1.58;1.30;;;28.70;93.20;;;;;;10742282;26;20234;-67
2024/04/14 16:41:46;;;;;;;1.95;1.30;;;28.50;93.30;;;;;;10743558;26;20008;-69
2024/04/14 16:46:37;;;;;;;3.63;1.60;;;28.80;93.10;;;;;;10746724;26;20544;-67
2024/04/14 16:51:28;;;;;;;3.40;1.48;;;28.90;93.00;;;;;;10745640;26;20002;-67
2024/04/14 16:56:19;;;;;;;3.40;1.77;;;28.40;93.10;;;;;;10750690;26;20548;-67
2024/04/14 17:01:09;;;;;;;2.25;1.23;;;27.90;93.20;;;;;;10703480;26;19996;-70
2024/04/14 17:06:00;;;;;;;2.28;1.30;;;27.80;93.20;;;;;;10753304;26;20028;-66
2024/04/14 17:10:51;;;;;;;6.80;1.75;;;27.90;93.10;;;;;;10741254;26;20071;-67
2024/04/14 17:15:42;;;;;;;3.20;2.08;;;28.10;93.00;;;;;;10745915;26;20027;-67
2024/04/14 17:20:33;;;;;;;2.60;1.52;;;28.10;93.00;;;;;;10746024;26;20000;-66
2024/04/14 17:25:24;;;;;;;6.00;2.33;;;27.90;93.10;;;;;;10742590;26;20047;-68
2024/04/14 17:30:15;;;;;;;6.28;1.90;;;27.60;93.20;;;;;;10745551;26;20050;-68
2024/04/14 17:35:06;;;;;;;3.03;1.60;;;27.40;93.20;;;;;;10737270;26;20020;-66
2024/04/14 17:39:57;;;;;;;2.15;1.60;;;27.20;93.30;;;;;;10714744;26;19992;-65
2024/04/14 17:44:47;;;;;;;3.72;1.50;;;27.10;93.30;;;;;;10742652;26;19996;-66
2024/04/14 17:49:38;;;;;;;3.78;1.60;;;27.00;93.30;;;;;;10745958;26;20094;-69
2024/04/14 17:54:29;;;;;;;2.53;1.60;;;27.00;93.60;;;;;;10745624;26;20068;-66
2024/04/14 17:59:19;;;;;;;4.45;2.10;;;26.80;93.40;;;;;;10744498;26;20072;-70
2024/04/14 18:04:15;;;;;;;3.97;1.88;;;26.70;93.50;;;;;;10730053;26;20010;-70
2024/04/14 18:09:06;;;;;;;4.28;1.80;;;26.60;93.50;;;;;;10710783;26;20352;-71
2024/04/14 18:13:57;;;;;;;3.10;1.75;;;26.50;93.60;;;;;;10751317;26;20000;-71
2024/04/14 18:18:48;;;;;;;3.85;1.90;;;26.40;93.60;;;;;;10751567;26;20028;-69
2024/04/14 18:23:38;;;;;;;4.55;1.70;;;26.30;93.60;;;;;;10751615;26;20091;-67
2024/04/14 18:28:29;;;;;;;2.10;1.50;;;26.20;93.60;;;;;;10730355;26;20000;-67
2024/04/14 18:33:20;;;;;;;3.13;2.30;;;26.10;94.00;;;;;;10723879;26;20008;-67
2024/04/14 18:38:10;;;;;;;2.70;1.35;;;25.90;93.70;;;;;;10751453;26;20429;-67
2024/04/14 18:43:01;;;;;;;4.38;1.80;;;25.80;93.60;;;;;;10751368;26;20000;-65
2024/04/14 18:47:52;;;;;;;3.40;1.70;;;25.80;93.70;;;;;;10751152;26;20408;-69
2024/04/14 18:52:42;;;;;;;3.38;1.40;;;25.80;93.60;;;;;;10748308;26;20195;-70
2024/04/14 18:57:33;;;;;;;3.22;1.67;;;25.70;93.90;;;;;;10742851;26;20004;-70
2024/04/14 19:02:24;;;;;;;4.00;2.45;;;25.70;93.70;;;;;;10750655;26;20023;-69
2024/04/14 19:07:14;;;;;;;5.13;2.13;;;25.60;93.60;;;;;;10750916;26;20076;-67
2024/04/14 19:12:08;;;;;;;2.47;1.58;;;25.50;93.60;;;;;;10747635;26;20742;-68
2024/04/14 19:16:58;;;;;;;3.65;1.67;;;25.60;93.60;;;;;;10705936;26;20008;-70
2024/04/14 19:21:49;;;;;;;7.78;1.80;;;25.50;93.60;;;;;;10747057;26;20005;-68
2024/04/14 19:26:39;;;;;;;4.75;2.53;;;25.50;93.70;;;;;;10735884;26;20559;-71
2024/04/14 19:31:33;;;;;;;1.52;1.33;;;25.50;93.60;;;;;;10750113;26;20028;-73
2024/04/14 19:36:24;;;;;;;3.60;1.40;;;25.30;93.60;;;;;;10706150;26;20671;-68
2024/04/14 19:41:16;;;;;;;2.88;1.85;;;25.10;93.70;;;;;;10737169;26;20008;-68
2024/04/14 19:46:07;;;;;;;3.55;2.13;;;25.10;93.80;;;;;;10749498;26;20012;-68
2024/04/14 19:50:57;;;;;;;3.28;1.52;;;25.00;93.70;;;;;;10749081;26;20493;-68
2024/04/14 19:55:48;;;;;;;2.85;1.60;;;24.90;93.80;;;;;;10699876;26;21987;-69
2024/04/14 20:00:39;;;;;;;2.58;1.50;;;24.90;94.00;;;;;;10733714;26;20029;-67
2024/04/14 20:05:30;;;;;;;3.70;1.77;;;25.00;93.90;;;;;;10737759;26;20010;-67
2024/04/14 20:10:20;;;;;;;4.43;1.70;;;24.90;93.90;;;;;;10749005;26;20337;-68
2024/04/14 20:15:11;;;;;;;4.68;1.70;;;25.00;93.90;;;;;;10748176;26;20008;-69
2024/04/14 20:20:02;;;;;;;6.35;2.20;;;24.90;93.90;;;;;;10688651;26;19997;-71
2024/04/14 20:24:53;;;;;;;3.65;2.08;;;24.80;94.00;;;;;;10745600;26;19997;-70
2024/04/14 20:29:43;;;;;;;3.58;2.28;;;24.60;94.00;;;;;;10745236;26;20000;-68
2024/04/14 20:34:34;;;;;;;5.63;1.63;;;24.60;94.10;;;;;;10744508;26;20004;-68
2024/04/14 20:39:25;;;;;;;4.80;2.63;;;24.80;94.00;;;;;;10748481;26;20000;-67
2024/04/14 20:44:17;;;;;;;2.50;1.67;;;24.50;94.00;;;;;;10748282;26;20003;-67
2024/04/14 20:49:07;;;;;;;4.10;1.70;;;24.50;94.10;;;;;;10745270;26;20003;-68
2024/04/14 20:53:58;;;;;;;4.10;1.38;;;24.30;94.10;;;;;;10742244;26;20125;-70
2024/04/14 20:58:52;;;;;;;4.25;1.63;;;24.30;94.20;;;;;;10752609;26;20444;-68
2024/04/14 21:03:43;;;;;;;8.30;3.03;;;24.30;94.20;;;;;;10723059;26;20037;-67
2024/04/14 21:08:34;;;;;;;3.67;2.00;;;24.20;94.20;;;;;;10746957;26;20344;-69
2024/04/14 21:13:25;;;;;;;5.07;1.52;;;24.30;94.30;;;;;;10707687;26;20005;-68
2024/04/14 21:18:15;;;;;;;2.22;1.25;;;24.00;94.30;;;;;;10716264;26;20019;-69
2024/04/14 21:23:07;;;;;;;2.97;1.13;;;24.10;94.30;;;;;;10737952;26;20015;-69
2024/04/14 21:27:57;;;;;;;3.33;1.30;;;23.90;94.30;;;;;;10715306;26;20000;-73
2024/04/14 21:32:48;;;;;;;1.70;1.13;;;23.80;94.30;;;;;;10754036;26;19996;-74
2024/04/14 21:37:42;;;;;;;2.15;1.42;;;23.70;94.40;;;;;;10745911;26;20004;-72
2024/04/14 21:42:33;;;;;;;3.00;1.97;;;23.70;94.30;;;;;;10722325;26;20001;-71
2024/04/14 21:47:23;;;;;;;2.30;1.27;;;23.80;94.40;;;;;;10752840;26;20016;-69
2024/04/14 21:52:14;;;;;;;2.15;1.25;;;23.80;94.20;;;;;;10719512;26;20000;-72
2024/04/14 21:57:05;;;;;;;3.67;1.20;;;23.80;94.10;;;;;;10751530;26;20000;-70
2024/04/14 22:01:55;;;;;;;3.15;1.50;;;23.80;94.10;;;;;;10752539;26;20046;-69
2024/04/14 22:06:46;;;;;;;2.58;1.92;;;23.60;94.00;;;;;;10732125;26;20016;-69
2024/04/14 22:11:37;;;;;;;5.30;1.90;;;23.50;94.00;;;;;;10752294;26;20585;-70
2024/04/14 22:16:28;;;;;;;1.33;0.90;;;23.30;93.90;;;;;;10752320;26;20000;-72
2024/04/14 22:21:18;;;;;;;3.65;1.25;;;23.20;93.80;;;;;;10752756;26;20008;-71
2024/04/14 22:26:09;;;;;;;1.20;1.00;;;23.20;93.90;;;;;;10720531;26;20004;-69
2024/04/14 22:31:00;;;;;;;1.85;0.88;;;23.20;93.80;;;;;;10751749;26;20432;-69
2024/04/14 22:35:51;;;;;;;3.83;1.70;;;23.20;93.80;;;;;;10751917;26;20011;-69
2024/04/14 22:40:41;;;;;;;2.40;0.90;;;23.00;93.70;;;;;;10741986;26;20385;-68
2024/04/14 22:45:32;;;;;;;1.85;1.10;;;22.90;93.70;;;;;;10751143;26;20004;-67
2024/04/14 22:50:23;;;;;;;1.63;1.10;;;22.90;93.70;;;;;;10751513;26;20085;-69
2024/04/14 22:55:14;;;;;;;1.23;0.82;;;22.80;93.60;;;;;;10720617;26;20015;-70
2024/04/14 23:00:11;;;;;;;2.80;0.98;;;22.70;93.60;;;;;;10720624;26;20015;-69
2024/04/14 23:05:02;;;;;;;2.45;1.10;;;22.70;93.70;;;;;;10750313;26;20004;-68
2024/04/14 23:09:53;;;;;;;2.00;0.95;;;22.70;93.70;;;;;;10747859;26;20006;-68
2024/04/14 23:14:44;;;;;;;1.98;0.90;;;22.70;93.80;;;;;;10750909;26;20409;-68
2024/04/14 23:19:38;;;;;;;1.52;0.90;;;22.70;93.80;;;;;;10743197;26;20043;-69
2024/04/14 23:24:31;;;;;;;2.55;1.13;;;22.70;93.80;;;;;;10719227;26;20008;-69
2024/04/14 23:29:22;;;;;;;0.88;0.70;;;22.50;93.90;;;;;;10750420;26;20019;-69
2024/04/14 23:34:13;;;;;;;2.20;1.08;;;22.30;94.00;;;;;;10719647;26;20015;-68
2024/04/14 23:39:03;;;;;;;2.88;1.00;;;22.40;94.10;;;;;;10750703;26;20004;-68
2024/04/14 23:43:54;;;;;;;1.35;0.90;;;22.30;94.10;;;;;;10739231;26;20037;-70
2024/04/14 23:48:45;;;;;;;3.03;1.13;;;22.10;94.30;;;;;;10729756;26;20015;-68
2024/04/14 23:53:35;;;;;;;3.10;1.35;;;22.20;94.20;;;;;;10750427;26;20687;-69
2024/04/14 23:58:35;;;;;;;2.30;1.10;;;22.10;94.30;;;;;;10749387;26;20015;-69
